sensor_id;sensor_type;location;lat;lon;timestamp;P1;durP1;ratioP1;P2;durP2;ratioP2
21418;SDS011;10870;51.384;10.316;2022-12-08T00:00:32;20.52;;;9.45;;
21418;SDS011;10870;51.384;10.316;2022-12-08T00:02:43;15.15;;;8.88;;
21418;SDS011;10870;51.384;10.316;2022-12-08T00:04:45;14.95;;;9.25;;
21418;SDS011;10870;51.384;10.316;2022-12-08T00:07:09;14.05;;;9.48;;
21418;SDS011;10870;51.384;10.316;2022-12-08T00:09:40;15.95;;;9.10;;
21418;SDS011;10870;51.384;10.316;2022-12-08T00:11:41;16.02;;;10.40;;
21418;SDS011;10870;51.384;10.316;2022-12-08T00:13:55;22.67;;;10.63;;
21418;SDS011;10870;51.384;10.316;2022-12-08T00:16:01;23.45;;;12.27;;
21418;SDS011;10870;51.384;10.316;2022-12-08T00:18:10;19.85;;;9.75;;
21418;SDS011;10870;51.384;10.316;2022-12-08T00:20:17;17.60;;;10.30;;
21418;SDS011;10870;51.384;10.316;2022-12-08T00:22:20;15.10;;;9.57;;
21418;SDS011;10870;51.384;10.316;2022-12-08T00:24:28;19.45;;;10.15;;
21418;SDS011;10870;51.384;10.316;2022-12-08T00:26:36;18.33;;;9.90;;
21418;SDS011;10870;51.384;10.316;2022-12-08T00:28:41;21.10;;;11.45;;
21418;SDS011;10870;51.384;10.316;2022-12-08T00:30:44;21.23;;;11.23;;
21418;SDS011;10870;51.384;10.316;2022-12-08T00:32:51;19.35;;;10.77;;
21418;SDS011;10870;51.384;10.316;2022-12-08T00:34:58;17.48;;;10.35;;
21418;SDS011;10870;51.384;10.316;2022-12-08T00:37:04;17.35;;;11.30;;
21418;SDS011;10870;51.384;10.316;2022-12-08T00:39:18;21.13;;;11.00;;
21418;SDS011;10870;51.384;10.316;2022-12-08T00:41:24;25.33;;;11.38;;
21418;SDS011;10870;51.384;10.316;2022-12-08T00:44:11;18.42;;;11.25;;
21418;SDS011;10870;51.384;10.316;2022-12-08T00:46:16;25.35;;;12.05;;
21418;SDS011;10870;51.384;10.316;2022-12-08T00:48:23;22.05;;;11.00;;
21418;SDS011;10870;51.384;10.316;2022-12-08T00:50:32;19.20;;;12.00;;
21418;SDS011;10870;51.384;10.316;2022-12-08T00:52:34;17.02;;;9.82;;
21418;SDS011;10870;51.384;10.316;2022-12-08T00:54:39;19.08;;;10.95;;
21418;SDS011;10870;51.384;10.316;2022-12-08T00:56:44;18.48;;;11.57;;
21418;SDS011;10870;51.384;10.316;2022-12-08T00:58:49;18.77;;;11.05;;
21418;SDS011;10870;51.384;10.316;2022-12-08T01:00:58;20.95;;;10.93;;
21418;SDS011;10870;51.384;10.316;2022-12-08T01:03:03;21.70;;;11.77;;
21418;SDS011;10870;51.384;10.316;2022-12-08T01:05:04;19.83;;;10.55;;
21418;SDS011;10870;51.384;10.316;2022-12-08T01:07:08;19.30;;;10.65;;
21418;SDS011;10870;51.384;10.316;2022-12-08T01:09:10;19.08;;;11.07;;
21418;SDS011;10870;51.384;10.316;2022-12-08T01:11:18;15.02;;;10.77;;
21418;SDS011;10870;51.384;10.316;2022-12-08T01:13:19;17.70;;;10.88;;
21418;SDS011;10870;51.384;10.316;2022-12-08T01:15:26;15.25;;;10.98;;
21418;SDS011;10870;51.384;10.316;2022-12-08T01:17:30;16.35;;;10.77;;
21418;SDS011;10870;51.384;10.316;2022-12-08T01:19:37;21.98;;;11.95;;
21418;SDS011;10870;51.384;10.316;2022-12-08T01:21:42;24.92;;;12.57;;
21418;SDS011;10870;51.384;10.316;2022-12-08T01:23:45;19.85;;;11.20;;
21418;SDS011;10870;51.384;10.316;2022-12-08T01:25:47;20.38;;;11.05;;
21418;SDS011;10870;51.384;10.316;2022-12-08T01:27:51;21.13;;;11.88;;
21418;SDS011;10870;51.384;10.316;2022-12-08T01:30:03;16.30;;;9.25;;
21418;SDS011;10870;51.384;10.316;2022-12-08T01:32:06;18.67;;;11.93;;
21418;SDS011;10870;51.384;10.316;2022-12-08T01:34:13;16.80;;;10.98;;
21418;SDS011;10870;51.384;10.316;2022-12-08T01:36:22;15.98;;;10.73;;
21418;SDS011;10870;51.384;10.316;2022-12-08T01:38:26;18.33;;;10.60;;
21418;SDS011;10870;51.384;10.316;2022-12-08T01:40:40;21.55;;;12.45;;
21418;SDS011;10870;51.384;10.316;2022-12-08T01:42:48;18.48;;;11.40;;
21418;SDS011;10870;51.384;10.316;2022-12-08T01:47:08;17.00;;;11.10;;
21418;SDS011;10870;51.384;10.316;2022-12-08T01:51:21;17.70;;;12.73;;
21418;SDS011;10870;51.384;10.316;2022-12-08T01:53:24;21.65;;;12.85;;
21418;SDS011;10870;51.384;10.316;2022-12-08T01:55:34;21.65;;;11.95;;
21418;SDS011;10870;51.384;10.316;2022-12-08T01:57:40;22.25;;;12.35;;
21418;SDS011;10870;51.384;10.316;2022-12-08T01:59:54;23.52;;;12.55;;
21418;SDS011;10870;51.384;10.316;2022-12-08T02:02:05;24.30;;;12.88;;
21418;SDS011;10870;51.384;10.316;2022-12-08T02:06:32;24.75;;;13.95;;
21418;SDS011;10870;51.384;10.316;2022-12-08T02:08:41;22.23;;;13.02;;
21418;SDS011;10870;51.384;10.316;2022-12-08T02:10:43;25.02;;;14.77;;
21418;SDS011;10870;51.384;10.316;2022-12-08T02:12:46;24.70;;;13.23;;
21418;SDS011;10870;51.384;10.316;2022-12-08T02:14:48;22.17;;;13.40;;
21418;SDS011;10870;51.384;10.316;2022-12-08T02:17:04;21.73;;;14.32;;
21418;SDS011;10870;51.384;10.316;2022-12-08T02:21:50;21.17;;;14.50;;
21418;SDS011;10870;51.384;10.316;2022-12-08T02:33:23;18.38;;;11.63;;
21418;SDS011;10870;51.384;10.316;2022-12-08T02:42:27;17.90;;;10.73;;
21418;SDS011;10870;51.384;10.316;2022-12-08T02:44:51;20.20;;;12.77;;
21418;SDS011;10870;51.384;10.316;2022-12-08T02:47:06;27.25;;;13.55;;
21418;SDS011;10870;51.384;10.316;2022-12-08T02:49:09;21.40;;;12.38;;
21418;SDS011;10870;51.384;10.316;2022-12-08T02:51:18;20.85;;;11.82;;
21418;SDS011;10870;51.384;10.316;2022-12-08T02:53:22;23.98;;;12.95;;
21418;SDS011;10870;51.384;10.316;2022-12-08T03:00:10;23.65;;;13.93;;
21418;SDS011;10870;51.384;10.316;2022-12-08T03:09:48;22.00;;;13.52;;
21418;SDS011;10870;51.384;10.316;2022-12-08T03:14:23;25.40;;;13.35;;
21418;SDS011;10870;51.384;10.316;2022-12-08T03:16:25;20.15;;;13.07;;
21418;SDS011;10870;51.384;10.316;2022-12-08T03:18:27;19.60;;;11.52;;
21418;SDS011;10870;51.384;10.316;2022-12-08T03:20:30;25.20;;;12.77;;
21418;SDS011;10870;51.384;10.316;2022-12-08T03:22:33;20.58;;;12.98;;
21418;SDS011;10870;51.384;10.316;2022-12-08T03:24:42;20.05;;;13.20;;
21418;SDS011;10870;51.384;10.316;2022-12-08T03:26:55;21.42;;;13.07;;
21418;SDS011;10870;51.384;10.316;2022-12-08T03:29:00;21.52;;;12.60;;
21418;SDS011;10870;51.384;10.316;2022-12-08T03:31:06;20.25;;;12.40;;
21418;SDS011;10870;51.384;10.316;2022-12-08T03:33:15;17.00;;;11.57;;
21418;SDS011;10870;51.384;10.316;2022-12-08T03:35:21;18.77;;;11.70;;
21418;SDS011;10870;51.384;10.316;2022-12-08T03:37:29;17.77;;;11.43;;
21418;SDS011;10870;51.384;10.316;2022-12-08T03:39:31;17.33;;;11.35;;
21418;SDS011;10870;51.384;10.316;2022-12-08T03:41:38;20.70;;;11.60;;
21418;SDS011;10870;51.384;10.316;2022-12-08T03:43:50;24.10;;;11.98;;
21418;SDS011;10870;51.384;10.316;2022-12-08T03:45:59;18.50;;;11.48;;
21418;SDS011;10870;51.384;10.316;2022-12-08T03:48:10;17.85;;;11.57;;
21418;SDS011;10870;51.384;10.316;2022-12-08T03:50:21;21.58;;;12.80;;
21418;SDS011;10870;51.384;10.316;2022-12-08T03:52:24;19.27;;;11.77;;
21418;SDS011;10870;51.384;10.316;2022-12-08T03:54:34;20.25;;;12.38;;
21418;SDS011;10870;51.384;10.316;2022-12-08T03:56:43;23.77;;;12.40;;
21418;SDS011;10870;51.384;10.316;2022-12-08T03:59:00;21.73;;;12.88;;
21418;SDS011;10870;51.384;10.316;2022-12-08T04:01:07;23.55;;;12.57;;
21418;SDS011;10870;51.384;10.316;2022-12-08T04:03:16;23.92;;;12.57;;
21418;SDS011;10870;51.384;10.316;2022-12-08T04:05:21;21.20;;;13.80;;
21418;SDS011;10870;51.384;10.316;2022-12-08T04:07:23;25.50;;;14.10;;
21418;SDS011;10870;51.384;10.316;2022-12-08T04:09:39;27.20;;;15.35;;
21418;SDS011;10870;51.384;10.316;2022-12-08T04:14:14;22.00;;;13.93;;
21418;SDS011;10870;51.384;10.316;2022-12-08T04:16:20;23.52;;;15.25;;
21418;SDS011;10870;51.384;10.316;2022-12-08T04:18:31;27.23;;;16.23;;
21418;SDS011;10870;51.384;10.316;2022-12-08T04:20:40;26.95;;;15.70;;
21418;SDS011;10870;51.384;10.316;2022-12-08T04:22:42;20.10;;;13.57;;
21418;SDS011;10870;51.384;10.316;2022-12-08T04:24:43;21.02;;;14.27;;
21418;SDS011;10870;51.384;10.316;2022-12-08T04:26:45;22.48;;;14.30;;
21418;SDS011;10870;51.384;10.316;2022-12-08T04:28:49;24.02;;;13.88;;
21418;SDS011;10870;51.384;10.316;2022-12-08T04:30:53;19.83;;;12.68;;
21418;SDS011;10870;51.384;10.316;2022-12-08T04:33:05;21.27;;;13.85;;
21418;SDS011;10870;51.384;10.316;2022-12-08T04:35:24;22.67;;;13.82;;
21418;SDS011;10870;51.384;10.316;2022-12-08T04:37:39;20.13;;;13.07;;
21418;SDS011;10870;51.384;10.316;2022-12-08T04:39:45;19.88;;;12.15;;
21418;SDS011;10870;51.384;10.316;2022-12-08T04:41:52;21.63;;;13.32;;
21418;SDS011;10870;51.384;10.316;2022-12-08T04:43:58;19.77;;;12.40;;
21418;SDS011;10870;51.384;10.316;2022-12-08T04:46:04;19.92;;;12.23;;
21418;SDS011;10870;51.384;10.316;2022-12-08T04:48:09;19.98;;;12.35;;
21418;SDS011;10870;51.384;10.316;2022-12-08T04:50:29;17.10;;;10.25;;
21418;SDS011;10870;51.384;10.316;2022-12-08T04:52:33;19.90;;;13.20;;
21418;SDS011;10870;51.384;10.316;2022-12-08T04:54:41;18.50;;;10.95;;
21418;SDS011;10870;51.384;10.316;2022-12-08T04:56:57;20.38;;;13.77;;
21418;SDS011;10870;51.384;10.316;2022-12-08T04:59:07;23.33;;;13.40;;
21418;SDS011;10870;51.384;10.316;2022-12-08T05:01:14;18.55;;;10.40;;
21418;SDS011;10870;51.384;10.316;2022-12-08T05:03:20;20.17;;;12.77;;
21418;SDS011;10870;51.384;10.316;2022-12-08T05:05:27;20.23;;;11.32;;
21418;SDS011;10870;51.384;10.316;2022-12-08T05:07:31;19.50;;;12.50;;
21418;SDS011;10870;51.384;10.316;2022-12-08T05:09:39;17.77;;;12.45;;
21418;SDS011;10870;51.384;10.316;2022-12-08T05:11:42;18.25;;;11.77;;
21418;SDS011;10870;51.384;10.316;2022-12-08T05:13:48;18.58;;;11.07;;
21418;SDS011;10870;51.384;10.316;2022-12-08T05:16:06;24.67;;;11.85;;
21418;SDS011;10870;51.384;10.316;2022-12-08T05:18:13;17.50;;;10.75;;
21418;SDS011;10870;51.384;10.316;2022-12-08T05:20:21;15.80;;;11.00;;
21418;SDS011;10870;51.384;10.316;2022-12-08T05:22:25;18.27;;;12.48;;
21418;SDS011;10870;51.384;10.316;2022-12-08T05:24:29;21.35;;;11.88;;
21418;SDS011;10870;51.384;10.316;2022-12-08T05:26:36;17.08;;;11.68;;
21418;SDS011;10870;51.384;10.316;2022-12-08T05:28:54;15.75;;;10.35;;
21418;SDS011;10870;51.384;10.316;2022-12-08T05:31:00;18.95;;;10.38;;
21418;SDS011;10870;51.384;10.316;2022-12-08T05:33:04;21.55;;;9.68;;
21418;SDS011;10870;51.384;10.316;2022-12-08T05:35:20;19.92;;;11.00;;
21418;SDS011;10870;51.384;10.316;2022-12-08T05:37:36;20.00;;;11.55;;
21418;SDS011;10870;51.384;10.316;2022-12-08T05:39:40;19.90;;;11.25;;
21418;SDS011;10870;51.384;10.316;2022-12-08T05:41:47;16.52;;;11.23;;
21418;SDS011;10870;51.384;10.316;2022-12-08T05:45:56;18.85;;;10.13;;
21418;SDS011;10870;51.384;10.316;2022-12-08T05:48:05;17.55;;;11.20;;
21418;SDS011;10870;51.384;10.316;2022-12-08T05:50:09;15.07;;;10.68;;
21418;SDS011;10870;51.384;10.316;2022-12-08T05:52:22;20.77;;;12.95;;
21418;SDS011;10870;51.384;10.316;2022-12-08T05:56:44;21.33;;;12.00;;
21418;SDS011;10870;51.384;10.316;2022-12-08T05:58:51;17.65;;;11.45;;
21418;SDS011;10870;51.384;10.316;2022-12-08T06:01:05;21.02;;;12.00;;
21418;SDS011;10870;51.384;10.316;2022-12-08T06:03:12;19.23;;;12.13;;
21418;SDS011;10870;51.384;10.316;2022-12-08T06:05:16;16.73;;;11.35;;
21418;SDS011;10870;51.384;10.316;2022-12-08T06:09:47;19.75;;;12.85;;
21418;SDS011;10870;51.384;10.316;2022-12-08T06:11:52;19.30;;;11.43;;
21418;SDS011;10870;51.384;10.316;2022-12-08T06:14:00;18.23;;;11.93;;
21418;SDS011;10870;51.384;10.316;2022-12-08T06:16:07;20.25;;;12.18;;
21418;SDS011;10870;51.384;10.316;2022-12-08T06:18:40;19.13;;;11.63;;
21418;SDS011;10870;51.384;10.316;2022-12-08T06:21:08;16.55;;;10.20;;
21418;SDS011;10870;51.384;10.316;2022-12-08T06:23:30;23.63;;;10.93;;
21418;SDS011;10870;51.384;10.316;2022-12-08T06:25:46;22.40;;;12.88;;
21418;SDS011;10870;51.384;10.316;2022-12-08T06:27:48;20.52;;;12.82;;
21418;SDS011;10870;51.384;10.316;2022-12-08T06:29:51;18.60;;;11.00;;
21418;SDS011;10870;51.384;10.316;2022-12-08T06:31:55;16.15;;;11.27;;
21418;SDS011;10870;51.384;10.316;2022-12-08T06:34:00;17.67;;;11.27;;
21418;SDS011;10870;51.384;10.316;2022-12-08T06:36:05;18.45;;;11.80;;
21418;SDS011;10870;51.384;10.316;2022-12-08T06:40:37;17.10;;;10.45;;
21418;SDS011;10870;51.384;10.316;2022-12-08T06:42:44;15.57;;;9.90;;
21418;SDS011;10870;51.384;10.316;2022-12-08T06:44:50;18.08;;;10.68;;
21418;SDS011;10870;51.384;10.316;2022-12-08T06:47:20;16.70;;;11.27;;
21418;SDS011;10870;51.384;10.316;2022-12-08T06:49:28;15.85;;;10.20;;
21418;SDS011;10870;51.384;10.316;2022-12-08T06:51:45;17.83;;;10.23;;
21418;SDS011;10870;51.384;10.316;2022-12-08T06:56:10;17.08;;;12.10;;
21418;SDS011;10870;51.384;10.316;2022-12-08T06:58:19;17.25;;;11.60;;
21418;SDS011;10870;51.384;10.316;2022-12-08T07:00:26;19.27;;;10.07;;
21418;SDS011;10870;51.384;10.316;2022-12-08T07:02:43;21.77;;;11.98;;
21418;SDS011;10870;51.384;10.316;2022-12-08T07:05:04;18.27;;;11.10;;
21418;SDS011;10870;51.384;10.316;2022-12-08T07:07:24;23.77;;;10.25;;
21418;SDS011;10870;51.384;10.316;2022-12-08T07:09:30;17.58;;;10.80;;
21418;SDS011;10870;51.384;10.316;2022-12-08T07:11:38;17.20;;;11.43;;
21418;SDS011;10870;51.384;10.316;2022-12-08T07:13:50;20.50;;;12.45;;
21418;SDS011;10870;51.384;10.316;2022-12-08T07:15:54;17.92;;;11.27;;
21418;SDS011;10870;51.384;10.316;2022-12-08T07:18:07;21.23;;;12.90;;
21418;SDS011;10870;51.384;10.316;2022-12-08T07:20:39;20.48;;;12.90;;
21418;SDS011;10870;51.384;10.316;2022-12-08T07:22:47;19.77;;;11.95;;
21418;SDS011;10870;51.384;10.316;2022-12-08T07:24:57;23.55;;;14.05;;
21418;SDS011;10870;51.384;10.316;2022-12-08T07:26:58;20.95;;;13.02;;
21418;SDS011;10870;51.384;10.316;2022-12-08T07:29:02;20.75;;;13.95;;
21418;SDS011;10870;51.384;10.316;2022-12-08T07:31:04;23.58;;;15.40;;
21418;SDS011;10870;51.384;10.316;2022-12-08T07:33:08;23.80;;;14.65;;
21418;SDS011;10870;51.384;10.316;2022-12-08T07:35:10;21.40;;;14.38;;
21418;SDS011;10870;51.384;10.316;2022-12-08T07:37:15;20.65;;;13.52;;
21418;SDS011;10870;51.384;10.316;2022-12-08T07:39:17;22.30;;;14.85;;
21418;SDS011;10870;51.384;10.316;2022-12-08T07:41:24;20.02;;;13.10;;
21418;SDS011;10870;51.384;10.316;2022-12-08T07:43:28;21.75;;;13.63;;
21418;SDS011;10870;51.384;10.316;2022-12-08T07:45:44;24.83;;;14.77;;
21418;SDS011;10870;51.384;10.316;2022-12-08T07:48:05;25.52;;;13.30;;
21418;SDS011;10870;51.384;10.316;2022-12-08T07:50:10;22.80;;;13.90;;
21418;SDS011;10870;51.384;10.316;2022-12-08T07:52:13;22.30;;;13.82;;
21418;SDS011;10870;51.384;10.316;2022-12-08T07:54:18;19.02;;;13.23;;
21418;SDS011;10870;51.384;10.316;2022-12-08T07:56:22;19.92;;;13.80;;
21418;SDS011;10870;51.384;10.316;2022-12-08T07:58:35;24.17;;;13.95;;
21418;SDS011;10870;51.384;10.316;2022-12-08T08:00:47;23.90;;;16.55;;
21418;SDS011;10870;51.384;10.316;2022-12-08T08:03:04;25.45;;;13.82;;
21418;SDS011;10870;51.384;10.316;2022-12-08T08:05:06;18.70;;;12.05;;
21418;SDS011;10870;51.384;10.316;2022-12-08T08:07:12;28.27;;;15.60;;
21418;SDS011;10870;51.384;10.316;2022-12-08T08:09:45;23.25;;;15.10;;
21418;SDS011;10870;51.384;10.316;2022-12-08T08:11:49;22.33;;;11.40;;
21418;SDS011;10870;51.384;10.316;2022-12-08T08:14:04;20.92;;;14.13;;
21418;SDS011;10870;51.384;10.316;2022-12-08T08:16:13;27.38;;;15.73;;
21418;SDS011;10870;51.384;10.316;2022-12-08T08:18:33;22.30;;;12.82;;
21418;SDS011;10870;51.384;10.316;2022-12-08T08:20:37;26.58;;;14.98;;
21418;SDS011;10870;51.384;10.316;2022-12-08T08:22:43;21.48;;;15.07;;
21418;SDS011;10870;51.384;10.316;2022-12-08T08:24:49;25.55;;;13.88;;
21418;SDS011;10870;51.384;10.316;2022-12-08T08:26:59;20.00;;;12.40;;
21418;SDS011;10870;51.384;10.316;2022-12-08T08:29:01;19.13;;;12.50;;
21418;SDS011;10870;51.384;10.316;2022-12-08T08:31:14;20.42;;;13.02;;
21418;SDS011;10870;51.384;10.316;2022-12-08T08:33:19;20.65;;;13.25;;
21418;SDS011;10870;51.384;10.316;2022-12-08T08:35:26;20.27;;;13.73;;
21418;SDS011;10870;51.384;10.316;2022-12-08T08:37:43;22.38;;;13.23;;
21418;SDS011;10870;51.384;10.316;2022-12-08T08:39:59;13.88;;;9.50;;
21418;SDS011;10870;51.384;10.316;2022-12-08T08:42:04;20.52;;;13.82;;
21418;SDS011;10870;51.384;10.316;2022-12-08T08:44:14;23.35;;;12.80;;
21418;SDS011;10870;51.384;10.316;2022-12-08T08:46:18;20.55;;;12.75;;
21418;SDS011;10870;51.384;10.316;2022-12-08T08:48:24;22.55;;;13.60;;
21418;SDS011;10870;51.384;10.316;2022-12-08T08:50:32;23.40;;;12.88;;
21418;SDS011;10870;51.384;10.316;2022-12-08T08:52:46;20.45;;;12.55;;
21418;SDS011;10870;51.384;10.316;2022-12-08T08:54:58;19.02;;;13.13;;
21418;SDS011;10870;51.384;10.316;2022-12-08T08:57:10;18.08;;;11.57;;
21418;SDS011;10870;51.384;10.316;2022-12-08T08:59:18;19.85;;;12.00;;
21418;SDS011;10870;51.384;10.316;2022-12-08T09:01:23;17.27;;;11.73;;
21418;SDS011;10870;51.384;10.316;2022-12-08T09:03:51;16.02;;;11.48;;
21418;SDS011;10870;51.384;10.316;2022-12-08T09:06:00;22.17;;;13.63;;
21418;SDS011;10870;51.384;10.316;2022-12-08T09:08:10;17.60;;;12.00;;
21418;SDS011;10870;51.384;10.316;2022-12-08T09:10:17;16.20;;;11.48;;
21418;SDS011;10870;51.384;10.316;2022-12-08T09:12:27;20.98;;;11.18;;
21418;SDS011;10870;51.384;10.316;2022-12-08T09:14:42;14.15;;;8.98;;
21418;SDS011;10870;51.384;10.316;2022-12-08T09:16:57;16.42;;;12.32;;
21418;SDS011;10870;51.384;10.316;2022-12-08T09:18:58;19.23;;;11.57;;
21418;SDS011;10870;51.384;10.316;2022-12-08T09:21:03;14.82;;;9.48;;
21418;SDS011;10870;51.384;10.316;2022-12-08T09:23:12;18.70;;;10.48;;
21418;SDS011;10870;51.384;10.316;2022-12-08T09:25:17;15.15;;;9.85;;
21418;SDS011;10870;51.384;10.316;2022-12-08T09:27:42;16.52;;;10.00;;
21418;SDS011;10870;51.384;10.316;2022-12-08T09:29:57;16.00;;;10.45;;
21418;SDS011;10870;51.384;10.316;2022-12-08T09:32:20;14.35;;;9.70;;
21418;SDS011;10870;51.384;10.316;2022-12-08T09:34:30;10.73;;;7.97;;
21418;SDS011;10870;51.384;10.316;2022-12-08T09:36:40;16.98;;;8.77;;
21418;SDS011;10870;51.384;10.316;2022-12-08T09:38:54;16.45;;;9.38;;
21418;SDS011;10870;51.384;10.316;2022-12-08T09:45:32;16.17;;;9.32;;
21418;SDS011;10870;51.384;10.316;2022-12-08T09:47:39;13.90;;;9.63;;
21418;SDS011;10870;51.384;10.316;2022-12-08T09:49:52;15.18;;;10.02;;
21418;SDS011;10870;51.384;10.316;2022-12-08T09:51:55;14.20;;;10.05;;
21418;SDS011;10870;51.384;10.316;2022-12-08T09:56:23;17.10;;;11.05;;
21418;SDS011;10870;51.384;10.316;2022-12-08T10:00:43;17.20;;;10.20;;
21418;SDS011;10870;51.384;10.316;2022-12-08T10:02:45;11.77;;;8.85;;
21418;SDS011;10870;51.384;10.316;2022-12-08T10:04:53;10.73;;;8.73;;
21418;SDS011;10870;51.384;10.316;2022-12-08T10:11:22;10.43;;;8.10;;
21418;SDS011;10870;51.384;10.316;2022-12-08T10:15:58;12.18;;;7.97;;
21418;SDS011;10870;51.384;10.316;2022-12-08T10:18:02;12.00;;;8.25;;
21418;SDS011;10870;51.384;10.316;2022-12-08T10:22:19;13.68;;;7.97;;
21418;SDS011;10870;51.384;10.316;2022-12-08T10:26:32;11.85;;;8.30;;
21418;SDS011;10870;51.384;10.316;2022-12-08T10:28:33;15.13;;;10.05;;
21418;SDS011;10870;51.384;10.316;2022-12-08T10:30:37;10.38;;;6.70;;
21418;SDS011;10870;51.384;10.316;2022-12-08T10:35:44;13.05;;;7.65;;
21418;SDS011;10870;51.384;10.316;2022-12-08T10:37:56;13.00;;;7.53;;
21418;SDS011;10870;51.384;10.316;2022-12-08T10:40:10;14.23;;;8.45;;
21418;SDS011;10870;51.384;10.316;2022-12-08T10:42:34;14.20;;;7.47;;
21418;SDS011;10870;51.384;10.316;2022-12-08T10:44:59;11.60;;;7.50;;
21418;SDS011;10870;51.384;10.316;2022-12-08T10:47:28;12.68;;;8.65;;
21418;SDS011;10870;51.384;10.316;2022-12-08T10:49:39;8.65;;;6.45;;
21418;SDS011;10870;51.384;10.316;2022-12-08T10:51:40;12.00;;;7.57;;
21418;SDS011;10870;51.384;10.316;2022-12-08T10:54:00;13.60;;;7.85;;
21418;SDS011;10870;51.384;10.316;2022-12-08T10:56:12;10.18;;;7.72;;
21418;SDS011;10870;51.384;10.316;2022-12-08T10:58:37;10.63;;;7.43;;
21418;SDS011;10870;51.384;10.316;2022-12-08T11:00:58;8.18;;;6.38;;
21418;SDS011;10870;51.384;10.316;2022-12-08T11:03:04;10.43;;;7.63;;
21418;SDS011;10870;51.384;10.316;2022-12-08T11:05:33;12.35;;;7.28;;
21418;SDS011;10870;51.384;10.316;2022-12-08T11:07:51;12.45;;;8.48;;
21418;SDS011;10870;51.384;10.316;2022-12-08T11:10:18;10.93;;;7.53;;
21418;SDS011;10870;51.384;10.316;2022-12-08T11:12:25;11.27;;;8.38;;
21418;SDS011;10870;51.384;10.316;2022-12-08T11:15:06;13.38;;;9.25;;
21418;SDS011;10870;51.384;10.316;2022-12-08T11:17:17;8.48;;;6.47;;
21418;SDS011;10870;51.384;10.316;2022-12-08T11:19:42;10.45;;;7.18;;
21418;SDS011;10870;51.384;10.316;2022-12-08T11:24:32;10.77;;;7.90;;
21418;SDS011;10870;51.384;10.316;2022-12-08T11:26:44;12.82;;;8.68;;
21418;SDS011;10870;51.384;10.316;2022-12-08T11:28:55;12.77;;;9.18;;
21418;SDS011;10870;51.384;10.316;2022-12-08T11:31:23;9.25;;;7.97;;
21418;SDS011;10870;51.384;10.316;2022-12-08T11:33:30;12.60;;;8.85;;
21418;SDS011;10870;51.384;10.316;2022-12-08T11:37:52;8.98;;;6.68;;
21418;SDS011;10870;51.384;10.316;2022-12-08T11:45:37;12.35;;;7.68;;
21418;SDS011;10870;51.384;10.316;2022-12-08T11:50:25;15.10;;;8.57;;
21418;SDS011;10870;51.384;10.316;2022-12-08T11:52:44;11.07;;;7.40;;
21418;SDS011;10870;51.384;10.316;2022-12-08T11:55:33;10.65;;;7.60;;
21418;SDS011;10870;51.384;10.316;2022-12-08T11:57:13;11.38;;;8.38;;
21418;SDS011;10870;51.384;10.316;2022-12-08T11:59:36;9.77;;;6.43;;
21418;SDS011;10870;51.384;10.316;2022-12-08T12:01:47;12.05;;;7.03;;
21418;SDS011;10870;51.384;10.316;2022-12-08T12:04:06;8.20;;;6.18;;
21418;SDS011;10870;51.384;10.316;2022-12-08T12:19:52;13.50;;;7.00;;
21418;SDS011;10870;51.384;10.316;2022-12-08T12:21:56;8.32;;;6.15;;
21418;SDS011;10870;51.384;10.316;2022-12-08T12:24:30;8.82;;;6.25;;
21418;SDS011;10870;51.384;10.316;2022-12-08T12:26:33;11.07;;;6.60;;
21418;SDS011;10870;51.384;10.316;2022-12-08T12:33:16;9.40;;;7.22;;
21418;SDS011;10870;51.384;10.316;2022-12-08T12:35:39;10.57;;;7.53;;
21418;SDS011;10870;51.384;10.316;2022-12-08T12:37:49;9.02;;;7.03;;
21418;SDS011;10870;51.384;10.316;2022-12-08T12:45:42;9.43;;;6.90;;
21418;SDS011;10870;51.384;10.316;2022-12-08T12:52:41;9.75;;;7.63;;
21418;SDS011;10870;51.384;10.316;2022-12-08T12:56:57;8.10;;;6.40;;
21418;SDS011;10870;51.384;10.316;2022-12-08T13:02:16;12.02;;;7.63;;
21418;SDS011;10870;51.384;10.316;2022-12-08T13:04:13;7.95;;;6.13;;
21418;SDS011;10870;51.384;10.316;2022-12-08T13:06:22;11.77;;;7.18;;
21418;SDS011;10870;51.384;10.316;2022-12-08T13:08:25;10.93;;;6.22;;
21418;SDS011;10870;51.384;10.316;2022-12-08T13:15:38;15.85;;;7.72;;
21418;SDS011;10870;51.384;10.316;2022-12-08T13:17:40;13.93;;;8.63;;
21418;SDS011;10870;51.384;10.316;2022-12-08T13:19:54;12.25;;;8.30;;
21418;SDS011;10870;51.384;10.316;2022-12-08T13:24:32;10.77;;;7.30;;
21418;SDS011;10870;51.384;10.316;2022-12-08T13:26:45;10.80;;;6.63;;
21418;SDS011;10870;51.384;10.316;2022-12-08T13:31:08;7.25;;;5.63;;
21418;SDS011;10870;51.384;10.316;2022-12-08T13:33:39;7.30;;;5.22;;
21418;SDS011;10870;51.384;10.316;2022-12-08T13:35:43;6.40;;;5.05;;
21418;SDS011;10870;51.384;10.316;2022-12-08T13:37:48;8.48;;;5.55;;
21418;SDS011;10870;51.384;10.316;2022-12-08T13:39:53;9.05;;;6.13;;
21418;SDS011;10870;51.384;10.316;2022-12-08T13:42:12;10.02;;;7.35;;
21418;SDS011;10870;51.384;10.316;2022-12-08T13:44:15;9.65;;;7.15;;
21418;SDS011;10870;51.384;10.316;2022-12-08T13:46:44;8.38;;;6.22;;
21418;SDS011;10870;51.384;10.316;2022-12-08T13:48:58;9.82;;;6.18;;
21418;SDS011;10870;51.384;10.316;2022-12-08T13:53:28;10.55;;;7.80;;
21418;SDS011;10870;51.384;10.316;2022-12-08T13:55:34;9.73;;;6.13;;
21418;SDS011;10870;51.384;10.316;2022-12-08T13:57:45;10.73;;;6.65;;
21418;SDS011;10870;51.384;10.316;2022-12-08T13:59:52;8.35;;;5.68;;
21418;SDS011;10870;51.384;10.316;2022-12-08T14:01:53;7.55;;;5.50;;
21418;SDS011;10870;51.384;10.316;2022-12-08T14:03:57;12.95;;;5.97;;
21418;SDS011;10870;51.384;10.316;2022-12-08T14:06:01;9.35;;;6.13;;
21418;SDS011;10870;51.384;10.316;2022-12-08T14:08:04;8.65;;;6.03;;
21418;SDS011;10870;51.384;10.316;2022-12-08T14:10:15;5.93;;;4.22;;
21418;SDS011;10870;51.384;10.316;2022-12-08T14:12:21;6.97;;;5.13;;
21418;SDS011;10870;51.384;10.316;2022-12-08T14:14:40;8.73;;;4.65;;
21418;SDS011;10870;51.384;10.316;2022-12-08T14:19:16;9.93;;;6.13;;
21418;SDS011;10870;51.384;10.316;2022-12-08T14:21:18;7.28;;;5.50;;
21418;SDS011;10870;51.384;10.316;2022-12-08T14:23:20;15.10;;;7.25;;
21418;SDS011;10870;51.384;10.316;2022-12-08T14:25:27;13.75;;;8.10;;
21418;SDS011;10870;51.384;10.316;2022-12-08T14:27:31;10.60;;;6.22;;
21418;SDS011;10870;51.384;10.316;2022-12-08T14:31:48;15.90;;;8.80;;
21418;SDS011;10870;51.384;10.316;2022-12-08T14:33:50;21.15;;;13.35;;
21418;SDS011;10870;51.384;10.316;2022-12-08T14:36:02;18.27;;;10.73;;
21418;SDS011;10870;51.384;10.316;2022-12-08T14:38:15;21.00;;;12.88;;
21418;SDS011;10870;51.384;10.316;2022-12-08T14:43:16;17.45;;;11.23;;
21418;SDS011;10870;51.384;10.316;2022-12-08T14:53:17;7.70;;;6.57;;
21418;SDS011;10870;51.384;10.316;2022-12-08T14:55:33;9.75;;;6.68;;
21418;SDS011;10870;51.384;10.316;2022-12-08T14:57:35;7.32;;;5.25;;
21418;SDS011;10870;51.384;10.316;2022-12-08T14:59:36;7.55;;;5.55;;
21418;SDS011;10870;51.384;10.316;2022-12-08T15:01:38;12.52;;;8.00;;